Time;durP1;ratioP1;P1;durP2;ratioP2;P2;SDS_P1;SDS_P2;PMS_P1;PMS_P2;Temp;Humidity;BMP_temperature;BMP_pressure;BME280_temperature;BME280_humidity;BME280_pressure;Samples;Min_cycle;Max_cycle;Signal;HPM_P1;HPM_P2
2021/01/17 00:00:19;;;;;;;;;;;-1.80;99.90;;;;;;5066050;28;19930;-69
2021/01/17 00:02:46;;;;;;;;;;;-1.80;99.90;;;;;;5051966;28;20397;-69
2021/01/17 00:05:12;;;;;;;;;;;-1.80;99.90;;;;;;5057200;28;19991;-69
2021/01/17 00:07:38;;;;;;;;;;;-1.80;99.90;;;;;;5058760;28;19988;-69
2021/01/17 00:10:05;;;;;;;;;;;-1.80;99.90;;;;;;5052848;28;19978;-68
2021/01/17 00:12:31;;;;;;;;;;;-1.80;99.90;;;;;;5060248;28;19912;-68
2021/01/17 00:14:56;;;;;;;;;;;-1.70;99.90;;;;;;5053916;28;20000;-68
2021/01/17 00:17:22;;;;;;;;;;;-1.70;99.90;;;;;;5058141;28;19921;-68
2021/01/17 00:19:48;;;;;;;;;;;-1.70;99.90;;;;;;5051028;28;19954;-68
2021/01/17 00:22:13;;;;;;;;;;;-1.60;99.90;;;;;;5048133;28;19912;-68
2021/01/17 00:24:39;;;;;;;;;;;-1.70;99.90;;;;;;5048418;28;19920;-69
2021/01/17 00:27:04;;;;;;;;;;;-1.70;99.90;;;;;;5046988;28;19919;-68
2021/01/17 00:29:30;;;;;;;;;;;-1.60;99.90;;;;;;5047034;28;20579;-67
2021/01/17 00:31:55;;;;;;;;;;;-1.60;99.90;;;;;;5047358;28;19993;-67
2021/01/17 00:34:21;;;;;;;;;;;-1.60;99.90;;;;;;5051823;28;19946;-68
2021/01/17 00:36:47;;;;;;;;;;;-1.60;99.90;;;;;;5051748;28;19981;-68
2021/01/17 00:39:12;;;;;;;;;;;-1.60;99.90;;;;;;5053664;28;19931;-64
2021/01/17 00:41:38;;;;;;;;;;;-1.60;99.90;;;;;;5048741;28;19921;-69
2021/01/17 00:44:04;;;;;;;;;;;-1.60;99.90;;;;;;5047907;28;20272;-67
2021/01/17 00:46:39;;;;;;;;;;;-1.50;99.90;;;;;;5046978;28;19962;-69
2021/01/17 00:49:05;;;;;;;;;;;-1.50;99.90;;;;;;5047349;28;19913;-67
2021/01/17 00:51:37;;;;;;;;;;;-1.50;99.90;;;;;;5050499;28;19919;-68
2021/01/17 00:54:03;;;;;;;;;;;-1.50;99.90;;;;;;5048263;28;20039;-68
2021/01/17 00:56:29;;;;;;;;;;;-1.50;99.90;;;;;;5051722;28;19959;-68
2021/01/17 00:58:54;;;;;;;;;;;-1.40;99.90;;;;;;5046670;28;19936;-69
2021/01/17 01:01:20;;;;;;;;;;;-1.50;99.90;;;;;;5055987;28;19940;-69
2021/01/17 01:03:45;;;;;;;;;;;-1.50;99.90;;;;;;5056328;28;19921;-69
2021/01/17 01:06:18;;;;;;;;;;;-1.50;99.90;;;;;;5058830;28;19916;-67
2021/01/17 01:08:44;;;;;;;;;;;-1.40;99.90;;;;;;5051826;28;19917;-68
2021/01/17 01:11:09;;;;;;;;;;;-1.40;99.90;;;;;;5061821;28;20580;-68
2021/01/17 01:13:35;;;;;;;;;;;-1.30;99.90;;;;;;5049478;28;20278;-68
2021/01/17 01:16:00;;;;;;;;;;;-1.30;99.90;;;;;;5052789;28;19917;-69
2021/01/17 01:18:26;;;;;;;;;;;-1.40;99.90;;;;;;5054994;28;19963;-69
2021/01/17 01:20:51;;;;;;;;;;;-1.40;99.90;;;;;;5057928;28;20325;-68
2021/01/17 01:23:17;;;;;;;;;;;-1.40;99.90;;;;;;5060427;28;19956;-69
2021/01/17 01:25:42;;;;;;;;;;;-1.40;99.90;;;;;;5051952;28;19982;-69
2021/01/17 01:28:08;;;;;;;;;;;-1.30;99.90;;;;;;5052674;28;19913;-69
2021/01/17 01:30:33;;;;;;;;;;;-1.30;99.90;;;;;;5062815;28;19924;-69
2021/01/17 01:32:59;;;;;;;;;;;-1.30;99.90;;;;;;5053350;28;19921;-69
2021/01/17 01:35:27;;;;;;;;;;;-1.30;99.90;;;;;;5054196;28;19913;-68
2021/01/17 01:37:52;;;;;;;;;;;-1.20;99.90;;;;;;5049064;28;19912;-69
2021/01/17 01:40:18;;;;;;;;;;;-1.30;99.90;;;;;;5064525;28;19981;-68
2021/01/17 01:42:43;;;;;;;;;;;-1.30;99.90;;;;;;5048606;28;19954;-68
2021/01/17 01:45:09;;;;;;;;;;;-1.30;99.90;;;;;;5057640;28;19908;-68
2021/01/17 01:47:35;;;;;;;;;;;-1.30;99.90;;;;;;5062793;28;20003;-68
2021/01/17 01:50:01;;;;;;;;;;;-1.30;99.90;;;;;;5050289;28;20290;-67
2021/01/17 01:52:27;;;;;;;;;;;-1.30;99.90;;;;;;5058019;28;20416;-69
2021/01/17 01:54:52;;;;;;;;;;;-1.20;99.90;;;;;;5051483;28;19915;-68
2021/01/17 01:57:18;;;;;;;;;;;-1.20;99.90;;;;;;5053891;28;19924;-68
2021/01/17 01:59:43;;;;;;;;;;;-1.20;99.90;;;;;;5059093;28;19999;-68
2021/01/17 02:02:09;;;;;;;;;;;-1.20;99.90;;;;;;5051086;28;19996;-68
2021/01/17 02:04:35;;;;;;;;;;;-1.20;99.90;;;;;;5059684;28;19962;-67
2021/01/17 02:07:13;;;;;;;;;;;-1.20;99.90;;;;;;5061539;28;19999;-68
2021/01/17 02:09:39;;;;;;;;;;;-1.20;99.90;;;;;;5056441;28;19940;-68
2021/01/17 02:12:14;;;;;;;;;;;-1.20;99.90;;;;;;5054675;28;20441;-68
2021/01/17 02:14:46;;;;;;;;;;;-1.10;99.90;;;;;;5058029;28;19909;-69
2021/01/17 02:17:13;;;;;;;;;;;-1.10;99.90;;;;;;5051369;28;20031;-68
2021/01/17 02:20:01;;;;;;;;;;;-1.20;99.90;;;;;;5058688;28;20019;-68
2021/01/17 02:22:29;;;;;;;;;;;-1.20;99.90;;;;;;5062392;28;19912;-69
2021/01/17 02:25:02;;;;;;;;;;;-1.30;99.90;;;;;;5061371;28;19908;-68
2021/01/17 02:27:30;;;;;;;;;;;-1.30;99.90;;;;;;5060172;28;20007;-69
2021/01/17 02:29:56;;;;;;;;;;;-1.20;99.90;;;;;;5059741;28;19966;-68
2021/01/17 02:32:22;;;;;;;;;;;-1.20;99.90;;;;;;5060203;28;19936;-68
2021/01/17 02:34:49;;;;;;;;;;;-1.10;99.90;;;;;;5061193;28;20357;-69
2021/01/17 02:37:20;;;;;;;;;;;-1.10;99.90;;;;;;5062603;28;20365;-68
2021/01/17 02:39:55;;;;;;;;;;;-1.10;99.90;;;;;;5052051;28;19921;-69
2021/01/17 02:42:21;;;;;;;;;;;-1.20;99.90;;;;;;5053625;28;20343;-68
2021/01/17 02:44:47;;;;;;;;;;;-1.20;99.90;;;;;;5057191;28;19909;-69
2021/01/17 02:47:12;;;;;;;;;;;-1.20;99.90;;;;;;5057497;28;19917;-67
2021/01/17 02:49:38;;;;;;;;;;;-1.20;99.90;;;;;;5062331;28;19916;-68
2021/01/17 02:52:05;;;;;;;;;;;-1.20;99.90;;;;;;5049239;28;19916;-68
2021/01/17 02:57:07;;;;;;;;;;;-1.10;99.90;;;;;;5434399;22;19979;-69
2021/01/17 02:59:34;;;;;;;;;;;-1.10;99.90;;;;;;5017774;28;19987;-66
2021/01/17 03:02:02;;;;;;;;;;;-1.10;99.90;;;;;;5029171;28;20332;-67
2021/01/17 03:04:34;;;;;;;;;;;-1.00;99.90;;;;;;5019101;28;20787;-67
2021/01/17 03:07:08;;;;;;;;;;;-1.00;99.90;;;;;;5019965;28;19917;-66
2021/01/17 03:09:33;;;;;;;;;;;-1.00;99.90;;;;;;5027036;28;19921;-67
2021/01/17 03:12:03;;;;;;;;;;;-0.90;99.90;;;;;;5026306;28;19999;-66
2021/01/17 03:14:31;;;;;;;;;;;-0.90;99.90;;;;;;5028342;28;19917;-66
2021/01/17 03:16:56;;;;;;;;;;;-0.90;99.90;;;;;;5022149;28;19917;-66
2021/01/17 03:19:22;;;;;;;;;;;-0.90;99.90;;;;;;5028039;28;19990;-67
2021/01/17 03:21:47;;;;;;;;;;;-0.90;99.90;;;;;;5029226;28;19925;-66
2021/01/17 03:24:13;;;;;;;;;;;-0.90;99.90;;;;;;5028143;28;20374;-65
2021/01/17 03:26:39;;;;;;;;;;;-0.90;99.90;;;;;;5026149;28;19917;-66
2021/01/17 03:29:04;;;;;;;;;;;-0.90;99.90;;;;;;5027592;28;19944;-66
2021/01/17 03:31:30;;;;;;;;;;;-0.90;99.90;;;;;;5028347;28;20361;-67
2021/01/17 03:33:55;;;;;;;;;;;-0.90;99.90;;;;;;5027978;28;19917;-67
2021/01/17 03:36:21;;;;;;;;;;;-0.80;99.90;;;;;;5027793;28;19917;-67
2021/01/17 03:38:46;;;;;;;;;;;-0.80;99.90;;;;;;5027282;28;20633;-67
2021/01/17 03:41:12;;;;;;;;;;;-0.90;99.90;;;;;;5027241;28;19909;-67
2021/01/17 03:43:38;;;;;;;;;;;-0.80;99.90;;;;;;5027663;28;20500;-66
2021/01/17 03:46:04;;;;;;;;;;;-0.90;99.90;;;;;;5028078;28;19920;-67
2021/01/17 03:48:29;;;;;;;;;;;-0.90;99.90;;;;;;5027288;28;19929;-65
2021/01/17 03:50:55;;;;;;;;;;;-0.80;99.90;;;;;;5027422;28;19913;-67
2021/01/17 03:53:20;;;;;;;;;;;-0.80;99.90;;;;;;5021661;28;19917;-66
2021/01/17 03:55:46;;;;;;;;;;;-0.90;99.90;;;;;;5027262;28;20066;-67
2021/01/17 03:58:12;;;;;;;;;;;-0.90;99.90;;;;;;5025760;28;19920;-66
2021/01/17 04:00:37;;;;;;;;;;;-0.90;99.90;;;;;;5027263;28;19970;-66
2021/01/17 04:03:03;;;;;;;;;;;-0.90;99.90;;;;;;5028229;28;19913;-66
2021/01/17 04:05:28;;;;;;;;;;;-0.90;99.90;;;;;;5027476;28;20322;-65
2021/01/17 04:07:54;;;;;;;;;;;-0.90;99.90;;;;;;5026771;28;19917;-66
2021/01/17 04:10:20;;;;;;;;;;;-0.90;99.90;;;;;;5027392;28;20374;-65
2021/01/17 04:12:45;;;;;;;;;;;-0.80;99.90;;;;;;5025615;28;20003;-66
2021/01/17 04:15:11;;;;;;;;;;;-0.80;99.90;;;;;;5027103;28;20242;-66
2021/01/17 04:17:37;;;;;;;;;;;-0.90;99.90;;;;;;5026739;28;19921;-66
2021/01/17 04:20:03;;;;;;;;;;;-0.90;99.90;;;;;;5026380;28;20012;-66
2021/01/17 04:22:29;;;;;;;;;;;-0.90;99.90;;;;;;5026944;28;20001;-66
2021/01/17 04:24:55;;;;;;;;;;;-0.90;99.90;;;;;;5027535;28;20884;-65
2021/01/17 04:27:20;;;;;;;;;;;-0.80;99.90;;;;;;5024849;28;20362;-66
2021/01/17 04:29:46;;;;;;;;;;;-0.80;99.90;;;;;;5027135;28;20039;-66
2021/01/17 04:32:11;;;;;;;;;;;-0.80;99.90;;;;;;5027541;28;19913;-66
2021/01/17 04:34:37;;;;;;;;;;;-0.80;99.90;;;;;;5026141;28;19987;-65
2021/01/17 04:37:03;;;;;;;;;;;-0.80;99.90;;;;;;5026645;28;20000;-65
2021/01/17 04:39:28;;;;;;;;;;;-0.80;99.90;;;;;;5027171;28;20104;-66
2021/01/17 04:41:57;;;;;;;;;;;-0.80;99.90;;;;;;5025514;28;19968;-66
2021/01/17 04:44:31;;;;;;;;;;;-0.80;99.90;;;;;;5027448;28;20000;-66
2021/01/17 04:46:57;;;;;;;;;;;-0.80;99.90;;;;;;5026125;28;20374;-66
2021/01/17 04:49:23;;;;;;;;;;;-0.80;99.90;;;;;;5024540;28;19917;-65
2021/01/17 04:51:49;;;;;;;;;;;-0.80;99.90;;;;;;5024146;28;20138;-66
2021/01/17 04:54:15;;;;;;;;;;;-0.80;99.90;;;;;;5021759;28;19913;-66
2021/01/17 04:56:48;;;;;;;;;;;-0.80;99.90;;;;;;5024716;28;19940;-65
2021/01/17 04:59:14;;;;;;;;;;;-0.80;99.90;;;;;;5016878;28;19923;-66
2021/01/17 05:01:46;;;;;;;;;;;-0.80;99.90;;;;;;5026221;28;19925;-65
2021/01/17 05:04:11;;;;;;;;;;;-0.80;99.90;;;;;;5026363;28;19917;-67
2021/01/17 05:06:38;;;;;;;;;;;-0.70;99.90;;;;;;5025801;28;20262;-66
2021/01/17 05:09:05;;;;;;;;;;;-0.70;99.90;;;;;;5026148;28;19959;-67
2021/01/17 05:11:35;;;;;;;;;;;-0.70;99.90;;;;;;5025158;28;19925;-66
2021/01/17 05:14:11;;;;;;;;;;;-0.70;99.90;;;;;;5026303;28;19914;-67
2021/01/17 05:16:37;;;;;;;;;;;-0.60;99.90;;;;;;5025745;28;19917;-64
2021/01/17 05:19:03;;;;;;;;;;;-0.60;99.90;;;;;;5026375;28;19975;-66
2021/01/17 05:21:31;;;;;;;;;;;-0.60;99.90;;;;;;5025215;28;19932;-67
2021/01/17 05:23:59;;;;;;;;;;;-0.60;99.90;;;;;;5026536;28;19931;-65
2021/01/17 05:26:25;;;;;;;;;;;-0.60;99.90;;;;;;5025361;28;20015;-67
2021/01/17 05:28:51;;;;;;;;;;;-0.60;99.90;;;;;;5025989;28;20378;-66
2021/01/17 05:31:18;;;;;;;;;;;-0.60;99.90;;;;;;5025791;28;20322;-66
2021/01/17 05:33:44;;;;;;;;;;;-0.50;99.90;;;;;;5025939;28;20020;-66
2021/01/17 05:36:15;;;;;;;;;;;-0.50;99.90;;;;;;5026295;28;20397;-65
2021/01/17 05:38:40;;;;;;;;;;;-0.50;99.90;;;;;;5026567;28;19956;-67
2021/01/17 05:41:06;;;;;;;;;;;-0.50;99.90;;;;;;5029130;28;19944;-66
2021/01/17 05:43:31;;;;;;;;;;;-0.50;99.90;;;;;;5029846;28;19913;-65
2021/01/17 05:45:57;;;;;;;;;;;-0.50;99.90;;;;;;5030260;28;19925;-66
2021/01/17 05:48:22;;;;;;;;;;;-0.50;99.90;;;;;;5029072;28;20300;-66
2021/01/17 05:50:48;;;;;;;;;;;-0.50;99.90;;;;;;5029955;28;20000;-67
2021/01/17 05:53:14;;;;;;;;;;;-0.50;99.90;;;;;;5028463;28;20340;-64
2021/01/17 05:55:41;;;;;;;;;;;-0.50;99.90;;;;;;5027977;28;19936;-65
2021/01/17 05:58:23;;;;;;;;;;;-0.50;99.90;;;;;;5029881;28;19920;-66
2021/01/17 06:00:50;;;;;;;;;;;-0.50;99.90;;;;;;5030529;28;19967;-64
2021/01/17 06:03:35;;;;;;;;;;;-0.50;99.90;;;;;;5033193;28;19913;-65
2021/01/17 06:06:02;;;;;;;;;;;-0.50;99.90;;;;;;5030427;28;19959;-65
2021/01/17 06:08:29;;;;;;;;;;;-0.50;99.90;;;;;;5029227;28;19955;-65
2021/01/17 06:10:56;;;;;;;;;;;-0.40;99.90;;;;;;5027358;28;19917;-65
2021/01/17 06:13:22;;;;;;;;;;;-0.50;99.90;;;;;;5028923;28;19917;-65
2021/01/17 06:15:48;;;;;;;;;;;-0.50;99.90;;;;;;5030081;28;20008;-66
2021/01/17 06:18:16;;;;;;;;;;;-0.50;99.90;;;;;;5028990;28;20483;-66
2021/01/17 06:20:42;;;;;;;;;;;-0.50;99.90;;;;;;5029733;28;20319;-66
2021/01/17 06:23:08;;;;;;;;;;;-0.50;99.90;;;;;;5029092;28;19939;-66
2021/01/17 06:25:34;;;;;;;;;;;-0.60;99.90;;;;;;5028724;28;19987;-66
2021/01/17 06:28:12;;;;;;;;;;;-0.60;99.90;;;;;;5029111;28;19916;-66
2021/01/17 06:30:38;;;;;;;;;;;-0.60;99.90;;;;;;5029581;28;19917;-66
2021/01/17 06:33:04;;;;;;;;;;;-0.60;99.90;;;;;;5028828;28;19917;-66
2021/01/17 06:35:42;;;;;;;;;;;-0.60;99.90;;;;;;5029786;28;19924;-66
2021/01/17 06:38:18;;;;;;;;;;;-0.60;99.90;;;;;;5028964;28;20294;-67
2021/01/17 06:40:44;;;;;;;;;;;-0.60;99.90;;;;;;5028128;28;20000;-66
2021/01/17 06:43:10;;;;;;;;;;;-0.60;99.90;;;;;;5028147;28;20317;-66
2021/01/17 06:45:40;;;;;;;;;;;-0.60;99.90;;;;;;5029882;28;19968;-66
2021/01/17 06:48:05;;;;;;;;;;;-0.60;99.90;;;;;;5028018;28;20411;-65
2021/01/17 06:50:31;;;;;;;;;;;-0.50;99.90;;;;;;5027766;28;19971;-66
2021/01/17 06:52:56;;;;;;;;;;;-0.50;99.90;;;;;;5028224;28;20285;-66
2021/01/17 06:55:22;;;;;;;;;;;-0.50;99.90;;;;;;5028858;28;19921;-67
2021/01/17 06:57:48;;;;;;;;;;;-0.50;99.90;;;;;;5027117;28;19928;-66
2021/01/17 07:00:15;;;;;;;;;;;-0.50;99.90;;;;;;5029191;28;20004;-66
2021/01/17 07:02:48;;;;;;;;;;;-0.50;99.90;;;;;;5027937;28;19936;-65
2021/01/17 07:05:32;;;;;;;;;;;-0.60;99.90;;;;;;5029684;28;19935;-65
2021/01/17 07:08:00;;;;;;;;;;;-0.50;99.90;;;;;;5021177;28;19917;-65
2021/01/17 07:10:29;;;;;;;;;;;-0.60;99.90;;;;;;5028002;28;19913;-66
2021/01/17 07:13:08;;;;;;;;;;;-0.50;99.90;;;;;;5027754;28;19920;-65
2021/01/17 07:15:38;;;;;;;;;;;-0.50;99.90;;;;;;5020879;28;20619;-66
2021/01/17 07:18:05;;;;;;;;;;;-0.60;99.90;;;;;;5028121;28;19913;-65
2021/01/17 07:20:38;;;;;;;;;;;-0.50;99.90;;;;;;5028802;28;19942;-67
2021/01/17 07:23:05;;;;;;;;;;;-0.60;99.90;;;;;;5027950;28;19917;-66
2021/01/17 07:25:31;;;;;;;;;;;-0.50;99.90;;;;;;5028313;28;19924;-66
2021/01/17 07:27:57;;;;;;;;;;;-0.60;99.90;;;;;;5027044;28;19928;-66
2021/01/17 07:30:48;;;;;;;;;;;-0.60;99.90;;;;;;5028529;28;19913;-66
2021/01/17 07:33:22;;;;;;;;;;;-0.50;99.90;;;;;;4997943;28;19917;-67
2021/01/17 07:35:48;;;;;;;;;;;-0.40;99.90;;;;;;5027979;28;20382;-67
2021/01/17 07:38:17;;;;;;;;;;;-0.30;99.90;;;;;;5026889;28;20008;-67
2021/01/17 07:40:51;;;;;;;;;;;-0.30;99.90;;;;;;5028016;28;19931;-67
2021/01/17 07:43:39;;;;;;;;;;;-0.20;99.90;;;;;;5027852;28;20274;-66
2021/01/17 07:46:06;;;;;;;;;;;-0.20;99.90;;;;;;5022520;28;19913;-64
2021/01/17 07:48:32;;;;;;;;;;;-0.10;99.90;;;;;;5027435;28;19917;-65
2021/01/17 07:50:59;;;;;;;;;;;-0.10;99.90;;;;;;5029235;28;19913;-66
2021/01/17 07:53:36;;;;;;;;;;;0.00;99.90;;;;;;5026126;28;19924;-66
2021/01/17 07:56:25;;;;;;;;;;;0.00;99.90;;;;;;5023803;28;19975;-65
2021/01/17 07:58:53;;;;;;;;;;;0.10;99.90;;;;;;5016147;28;20369;-66
2021/01/17 08:01:31;;;;;;;;;;;0.20;99.90;;;;;;5027468;28;19924;-66
2021/01/17 08:03:56;;;;;;;;;;;0.30;99.90;;;;;;5027649;28;20369;-66
2021/01/17 08:06:42;;;;;;;;;;;0.30;99.90;;;;;;5026976;28;19917;-65
2021/01/17 08:09:07;;;;;;;;;;;0.40;99.90;;;;;;5025585;28;19919;-66
2021/01/17 08:11:44;;;;;;;;;;;0.40;99.90;;;;;;5026520;28;20281;-66
2021/01/17 08:14:26;;;;;;;;;;;0.40;99.90;;;;;;5027268;28;19920;-65
2021/01/17 08:17:06;;;;;;;;;;;0.40;99.90;;;;;;5018578;28;20020;-65
2021/01/17 08:19:32;;;;;;;;;;;0.50;99.90;;;;;;5027018;28;20053;-66
2021/01/17 08:22:18;;;;;;;;;;;0.50;99.90;;;;;;5027484;28;19917;-65
2021/01/17 08:24:49;;;;;;;;;;;0.60;99.90;;;;;;5026914;28;19920;-65
2021/01/17 08:27:28;;;;;;;;;;;0.70;99.90;;;;;;5026419;28;20401;-68
2021/01/17 08:30:02;;;;;;;;;;;0.70;99.90;;;;;;5026687;28;19921;-69
2021/01/17 08:32:40;;;;;;;;;;;0.70;99.90;;;;;;5026717;28;20697;-68
2021/01/17 08:35:18;;;;;;;;;;;0.80;99.90;;;;;;5026956;28;19978;-66
2021/01/17 08:37:49;;;;;;;;;;;0.90;99.90;;;;;;5024601;28;19928;-65
2021/01/17 08:40:15;;;;;;;;;;;0.90;99.90;;;;;;5027893;28;20012;-63
2021/01/17 08:42:51;;;;;;;;;;;1.00;99.90;;;;;;5026353;28;20019;-68
2021/01/17 08:45:19;;;;;;;;;;;1.00;99.90;;;;;;5019572;28;20346;-68
2021/01/17 08:47:45;;;;;;;;;;;1.00;99.90;;;;;;5026433;28;19991;-68
2021/01/17 08:50:29;;;;;;;;;;;1.00;99.90;;;;;;5027163;28;19921;-67
2021/01/17 08:53:13;;;;;;;;;;;1.00;99.90;;;;;;5024984;28;19957;-68
2021/01/17 08:55:42;;;;;;;;;;;1.10;99.90;;;;;;5026499;28;19931;-67
2021/01/17 08:58:09;;;;;;;;;;;1.00;99.90;;;;;;5026789;28;20500;-66
2021/01/17 09:00:56;;;;;;;;;;;1.10;99.90;;;;;;5026885;28;19995;-68
2021/01/17 09:03:25;;;;;;;;;;;1.10;99.90;;;;;;5027067;28;20262;-68
2021/01/17 09:05:55;;;;;;;;;;;1.10;99.90;;;;;;5026805;28;20404;-68
2021/01/17 09:08:21;;;;;;;;;;;1.20;99.90;;;;;;5025715;28;19924;-66
2021/01/17 09:10:47;;;;;;;;;;;1.20;99.90;;;;;;5026674;28;19917;-68
2021/01/17 09:13:19;;;;;;;;;;;1.30;99.90;;;;;;5024746;28;19925;-66
2021/01/17 09:16:01;;;;;;;;;;;1.30;99.90;;;;;;5016203;28;19922;-66
2021/01/17 09:18:32;;;;;;;;;;;1.40;99.90;;;;;;5025806;28;19921;-65
2021/01/17 09:20:58;;;;;;;;;;;1.50;99.90;;;;;;5021967;28;19921;-68
2021/01/17 09:23:24;;;;;;;;;;;1.50;99.90;;;;;;5026090;28;19924;-68
2021/01/17 09:26:00;;;;;;;;;;;1.50;99.90;;;;;;5026424;28;19924;-65
2021/01/17 09:28:26;;;;;;;;;;;1.60;99.90;;;;;;5025814;28;19920;-68
2021/01/17 09:30:52;;;;;;;;;;;1.60;99.90;;;;;;5026167;28;19917;-67
2021/01/17 09:33:18;;;;;;;;;;;1.70;99.90;;;;;;5026444;28;19971;-68
2021/01/17 09:35:44;;;;;;;;;;;1.80;99.90;;;;;;5026454;28;19960;-67
2021/01/17 09:38:14;;;;;;;;;;;1.70;99.90;;;;;;5024885;28;19920;-67
2021/01/17 09:40:40;;;;;;;;;;;1.90;99.90;;;;;;5026516;28;19913;-66
2021/01/17 09:43:06;;;;;;;;;;;1.90;99.90;;;;;;5026295;28;19933;-67
2021/01/17 09:45:31;;;;;;;;;;;2.00;99.90;;;;;;5026447;28;20806;-68
2021/01/17 09:47:58;;;;;;;;;;;2.00;99.90;;;;;;5026741;28;19976;-67
2021/01/17 09:50:29;;;;;;;;;;;2.00;99.90;;;;;;5027498;28;20346;-67
2021/01/17 09:52:55;;;;;;;;;;;2.00;99.90;;;;;;5025603;28;20373;-66
2021/01/17 09:55:21;;;;;;;;;;;2.00;99.90;;;;;;5026996;28;19913;-67
2021/01/17 09:57:46;;;;;;;;;;;2.00;99.90;;;;;;5025265;28;19917;-67
2021/01/17 10:00:14;;;;;;;;;;;2.00;99.90;;;;;;5011047;28;20001;-67
2021/01/17 10:02:40;;;;;;;;;;;2.10;99.90;;;;;;5007350;28;19910;-66
2021/01/17 10:05:06;;;;;;;;;;;2.20;99.90;;;;;;5007292;28;19918;-65
2021/01/17 10:07:32;;;;;;;;;;;2.30;99.90;;;;;;5005181;28;20657;-67
2021/01/17 10:09:57;;;;;;;;;;;2.30;99.90;;;;;;5016404;28;19948;-67
2021/01/17 10:12:26;;;;;;;;;;;2.40;99.90;;;;;;5017289;28;20424;-66
2021/01/17 10:14:52;;;;;;;;;;;2.50;99.90;;;;;;5013782;28;19920;-67
2021/01/17 10:17:18;;;;;;;;;;;2.50;99.90;;;;;;5022859;28;19917;-65
2021/01/17 10:19:45;;;;;;;;;;;2.60;99.90;;;;;;5027399;28;19913;-68
2021/01/17 10:22:12;;;;;;;;;;;2.70;99.90;;;;;;5025339;28;19913;-67
2021/01/17 10:24:37;;;;;;;;;;;2.70;99.90;;;;;;5012860;28;19996;-65
2021/01/17 10:27:04;;;;;;;;;;;2.80;99.90;;;;;;5008362;28;20013;-66
2021/01/17 10:29:37;;;;;;;;;;;2.80;99.90;;;;;;5016886;28;19960;-63
2021/01/17 10:32:04;;;;;;;;;;;2.90;99.90;;;;;;5029934;28;19909;-67
2021/01/17 10:34:33;;;;;;;;;;;3.00;99.90;;;;;;5029089;28;20000;-66
2021/01/17 10:37:00;;;;;;;;;;;3.00;99.90;;;;;;5018538;28;19917;-65
2021/01/17 10:39:27;;;;;;;;;;;3.10;99.90;;;;;;5015584;28;19913;-65
2021/01/17 10:42:00;;;;;;;;;;;3.20;99.90;;;;;;5019850;28;20008;-65
2021/01/17 10:44:27;;;;;;;;;;;3.10;99.90;;;;;;5017943;28;20313;-65
2021/01/17 10:46:58;;;;;;;;;;;3.20;99.90;;;;;;5021115;28;19952;-66
2021/01/17 10:49:27;;;;;;;;;;;3.20;99.90;;;;;;5020805;28;20373;-67
2021/01/17 10:51:54;;;;;;;;;;;3.30;99.90;;;;;;5017457;28;19913;-68
2021/01/17 10:54:22;;;;;;;;;;;3.40;99.90;;;;;;5019594;28;19999;-67
2021/01/17 10:56:47;;;;;;;;;;;3.50;99.90;;;;;;5022164;28;19964;-67
2021/01/17 10:59:16;;;;;;;;;;;3.60;99.90;;;;;;5021249;28;20313;-68
2021/01/17 11:01:46;;;;;;;;;;;3.70;99.90;;;;;;5024113;28;20293;-68
2021/01/17 11:04:13;;;;;;;;;;;3.70;99.90;;;;;;5024927;28;19986;-67
2021/01/17 11:06:39;;;;;;;;;;;3.70;99.90;;;;;;5021551;28;19924;-67
2021/01/17 11:09:10;;;;;;;;;;;3.70;99.90;;;;;;5024428;28;20301;-66
2021/01/17 11:11:50;;;;;;;;;;;3.80;99.90;;;;;;5022294;28;19944;-67
2021/01/17 11:14:24;;;;;;;;;;;3.80;99.90;;;;;;5024932;28;20251;-68
2021/01/17 11:16:50;;;;;;;;;;;3.80;99.90;;;;;;5022969;28;19956;-68
2021/01/17 11:19:16;;;;;;;;;;;3.80;99.90;;;;;;5026984;28;19917;-68
2021/01/17 11:21:42;;;;;;;;;;;3.80;99.90;;;;;;5026851;28;19988;-68
2021/01/17 11:24:08;;;;;;;;;;;3.80;99.90;;;;;;5028079;28;20361;-67
2021/01/17 11:26:34;;;;;;;;;;;3.80;99.90;;;;;;5026115;28;19913;-68
2021/01/17 11:29:01;;;;;;;;;;;3.40;99.90;;;;;;5025864;28;20405;-66
2021/01/17 11:31:27;;;;;;;;;;;3.30;99.90;;;;;;5027241;28;19921;-67
2021/01/17 11:33:52;;;;;;;;;;;3.30;99.90;;;;;;5028522;28;19941;-67
2021/01/17 11:36:22;;;;;;;;;;;3.60;99.90;;;;;;5026869;28;19929;-68
2021/01/17 11:38:49;;;;;;;;;;;3.70;99.90;;;;;;5025549;28;20350;-67
2021/01/17 11:41:16;;;;;;;;;;;3.80;99.90;;;;;;5028272;28;19913;-65
2021/01/17 11:43:42;;;;;;;;;;;3.80;99.90;;;;;;5027433;28;20016;-66
2021/01/17 11:46:09;;;;;;;;;;;3.60;99.90;;;;;;5027336;28;19992;-66
2021/01/17 11:48:35;;;;;;;;;;;3.50;99.90;;;;;;5025758;28;19913;-67
2021/01/17 11:51:01;;;;;;;;;;;3.40;99.90;;;;;;5027722;28;19913;-66
2021/01/17 11:53:27;;;;;;;;;;;3.20;99.90;;;;;;5025383;28;20385;-66
2021/01/17 11:55:53;;;;;;;;;;;3.10;99.90;;;;;;5027733;28;20848;-67
2021/01/17 11:58:19;;;;;;;;;;;3.00;99.90;;;;;;5026054;28;19971;-67
2021/01/17 12:00:45;;;;;;;;;;;3.20;99.90;;;;;;5027866;28;19917;-67
2021/01/17 12:03:21;;;;;;;;;;;3.40;99.90;;;;;;5027925;28;20043;-66
2021/01/17 12:05:55;;;;;;;;;;;3.60;99.90;;;;;;5026939;28;19921;-69
2021/01/17 12:08:20;;;;;;;;;;;3.70;99.90;;;;;;5027348;28;20290;-67
2021/01/17 12:10:53;;;;;;;;;;;3.80;99.90;;;;;;5027269;28;19917;-64
2021/01/17 12:13:19;;;;;;;;;;;4.00;99.90;;;;;;5024936;28;19917;-68
2021/01/17 12:15:44;;;;;;;;;;;4.10;99.90;;;;;;5024341;28;19913;-68
2021/01/17 12:18:10;;;;;;;;;;;4.20;99.90;;;;;;5046029;22;19957;-68
2021/01/17 12:20:35;;;;;;;;;;;4.30;99.90;;;;;;5021949;28;19921;-69
2021/01/17 12:23:01;;;;;;;;;;;4.40;99.90;;;;;;5026005;28;19920;-69
2021/01/17 12:25:26;;;;;;;;;;;4.50;99.90;;;;;;5026617;28;20395;-68
2021/01/17 12:27:52;;;;;;;;;;;4.50;99.90;;;;;;5024075;28;19924;-70
2021/01/17 12:30:19;;;;;;;;;;;4.40;99.90;;;;;;5026105;28;19917;-70
2021/01/17 12:32:45;;;;;;;;;;;4.50;99.90;;;;;;5026097;28;19913;-69
2021/01/17 12:35:11;;;;;;;;;;;4.50;99.90;;;;;;5025819;28;20392;-70
2021/01/17 12:37:36;;;;;;;;;;;4.50;99.90;;;;;;5022095;28;20004;-70
2021/01/17 12:40:02;;;;;;;;;;;4.50;99.90;;;;;;5026346;28;20391;-69
2021/01/17 12:42:28;;;;;;;;;;;4.60;99.90;;;;;;5024425;28;19978;-69
2021/01/17 12:44:53;;;;;;;;;;;4.50;99.90;;;;;;5024632;28;20382;-69
2021/01/17 12:47:19;;;;;;;;;;;4.50;99.90;;;;;;5025523;28;19951;-68
2021/01/17 12:49:44;;;;;;;;;;;4.50;99.90;;;;;;5024410;28;19917;-70
2021/01/17 12:52:10;;;;;;;;;;;4.40;99.90;;;;;;5026547;28;20416;-68
2021/01/17 12:54:35;;;;;;;;;;;4.40;99.90;;;;;;5026614;28;19913;-68
2021/01/17 12:57:01;;;;;;;;;;;4.30;99.90;;;;;;5023194;28;20013;-69
2021/01/17 12:59:27;;;;;;;;;;;4.20;99.90;;;;;;5006609;28;20008;-71
2021/01/17 13:01:52;;;;;;;;;;;4.10;99.90;;;;;;5026377;28;20253;-70
2021/01/17 13:04:18;;;;;;;;;;;4.10;99.90;;;;;;5025477;28;20274;-68
2021/01/17 13:06:43;;;;;;;;;;;4.00;99.90;;;;;;5024883;28;19921;-68
2021/01/17 13:09:09;;;;;;;;;;;3.90;99.90;;;;;;5024979;28;20297;-70
2021/01/17 13:11:34;;;;;;;;;;;3.80;99.90;;;;;;5023313;28;20520;-69
2021/01/17 13:14:00;;;;;;;;;;;3.60;99.90;;;;;;5025674;28;20071;-71
2021/01/17 13:16:26;;;;;;;;;;;3.50;99.90;;;;;;5024540;28;19917;-69
2021/01/17 13:18:51;;;;;;;;;;;3.40;99.90;;;;;;4970450;28;1488008;-68
2021/01/17 13:21:17;;;;;;;;;;;3.30;99.90;;;;;;5026207;28;19917;-69
2021/01/17 13:23:43;;;;;;;;;;;3.40;99.90;;;;;;5026643;28;20420;-69
2021/01/17 13:26:18;;;;;;;;;;;3.40;99.90;;;;;;5024194;28;19921;-69
2021/01/17 13:28:44;;;;;;;;;;;3.40;99.90;;;;;;5025309;28;20524;-68
2021/01/17 13:31:09;;;;;;;;;;;3.30;99.90;;;;;;5026060;28;19913;-67
2021/01/17 13:33:35;;;;;;;;;;;3.30;99.90;;;;;;5025214;28;19922;-70
2021/01/17 13:36:01;;;;;;;;;;;3.40;99.90;;;;;;5025731;28;19917;-71
2021/01/17 13:38:26;;;;;;;;;;;3.40;99.90;;;;;;5025327;28;19921;-69
2021/01/17 13:40:53;;;;;;;;;;;3.40;99.90;;;;;;5025875;28;20364;-68
2021/01/17 13:43:18;;;;;;;;;;;3.40;99.90;;;;;;5031685;28;20352;-71
2021/01/17 13:45:45;;;;;;;;;;;3.40;99.90;;;;;;5026426;28;19952;-69
2021/01/17 13:48:10;;;;;;;;;;;3.40;99.90;;;;;;5025545;28;19967;-67
2021/01/17 13:50:36;;;;;;;;;;;3.30;99.90;;;;;;5025892;28;19964;-69
2021/01/17 13:53:03;;;;;;;;;;;3.40;99.90;;;;;;5025384;28;19934;-69
2021/01/17 13:55:28;;;;;;;;;;;3.40;99.90;;;;;;5025744;28;19971;-69
2021/01/17 13:57:54;;;;;;;;;;;3.40;99.90;;;;;;5023750;28;20424;-69
2021/01/17 14:00:21;;;;;;;;;;;3.40;99.90;;;;;;5028071;28;19960;-70
2021/01/17 14:02:47;;;;;;;;;;;3.40;99.90;;;;;;5029648;28;19956;-69
2021/01/17 14:05:13;;;;;;;;;;;3.50;99.90;;;;;;5029665;28;19972;-68
2021/01/17 14:07:39;;;;;;;;;;;3.40;99.90;;;;;;5028960;28;19917;-69
2021/01/17 14:10:05;;;;;;;;;;;3.40;99.90;;;;;;5029262;28;19913;-69
2021/01/17 14:12:31;;;;;;;;;;;3.40;99.90;;;;;;5027495;28;19913;-68
2021/01/17 14:14:57;;;;;;;;;;;3.40;99.90;;;;;;5027867;28;19924;-68
2021/01/17 14:17:22;;;;;;;;;;;3.40;99.90;;;;;;5027238;28;19936;-68
2021/01/17 14:19:48;;;;;;;;;;;3.40;99.90;;;;;;5026922;28;19917;-69
2021/01/17 14:22:14;;;;;;;;;;;3.50;99.90;;;;;;5027643;28;20021;-68
2021/01/17 14:24:40;;;;;;;;;;;3.50;99.90;;;;;;5028439;28;20005;-67
2021/01/17 14:27:06;;;;;;;;;;;3.50;99.90;;;;;;5025884;28;19913;-68
2021/01/17 14:29:31;;;;;;;;;;;3.50;99.90;;;;;;5027674;28;19927;-69